메인 페이지
METAR-TAF:

METAR-TAF

공항 :

오클라호마시티, 오클라호마, 미국

위도: 35-23-19N, 경도: 097-36-01W, 고도: 394m

현재 날씨관측

예보는 46분 전, 10:52시(UTC)에 발표되었습니다.
9kt
온도 16°C
습도 100%
기압 1012 hPa
시정: 12.9km
맑음

METAR: KOKC 261052Z 17009KT 8SM CLR 16/16 A2988 RMK AO2 SLP105 T01610156

시각: 06:38 (11:38 UTC)

예보

예보는 6 시간 18분 전, 05:20시(UTC)에 발표되었습니다.
예보 대상 시간: 26일 06시부터 27일 06시까지 (UTC)
11kt
시정: 10km
맑음
26일 1500시부터 (UTC)
15kt, 순간 최대 풍속 22kt
시정: 10km
맑음
27일 0000시부터 (UTC)
13kt
시정: 10km
맑음

TAF: KOKC 260520Z 2606/2706 17011KT P6SM SKC FM261500 18015G22KT P6SM SKC FM270000 17013KT P6SM SKC

4,000개 이상의 공항 관측 자료 및 예보 (METAR 및 TAF 보고).

지도상에서 검색 가능한 기상관측소가 노란 점과 빨간 점으로 표시되어 있습니다.

기상관측소 명을 보려면 표시 위로 마우스를 이동하세요.

날씨 관측과 예보를 보려면 클릭하세요.

지도 변경 : 확대하려면 엑스 표시가 있는 녹색 버튼, 축소하려면 빼기 표시가 있는 녹색 버튼, 다음 페이지의 지도를 보려면 녹색 화살표를 클릭하세요.


METAR-TAF: